Time;durP1;ratioP1;P1;durP2;ratioP2;P2;SDS_P1;SDS_P2;PMS_P1;PMS_P2;Temp;Humidity;BMP_temperature;BMP_pressure;BME280_temperature;BME280_humidity;BME280_pressure;Samples;Min_cycle;Max_cycle;Signal;HPM_P1;HPM_P2
2021/08/12 00:06:57;;;;;;;5.90;5.30;;;14.80;99.90;;;;;;6302529;22;20962;-85
2021/08/12 00:09:59;;;;;;;6.00;5.33;;;14.90;99.90;;;;;;6313692;22;20202;-85
2021/08/12 00:12:28;;;;;;;7.40;5.33;;;14.90;99.90;;;;;;6300487;22;20156;-83
2021/08/12 00:15:27;;;;;;;7.23;5.63;;;14.90;99.90;;;;;;6298085;22;20634;-86
2021/08/12 00:18:20;;;;;;;8.27;5.40;;;14.90;99.90;;;;;;6302556;22;20592;-82
2021/08/12 00:21:27;;;;;;;6.80;5.80;;;14.80;99.90;;;;;;6298892;22;20160;-83
2021/08/12 00:46:36;;;;;;;8.17;6.50;;;14.40;99.90;;;;;;6237856;23;21231;-89
2021/08/12 00:54:06;;;;;;;7.67;6.57;;;14.20;99.90;;;;;;6264705;22;20176;-84
2021/08/12 01:01:42;;;;;;;8.37;6.37;;;14.40;99.90;;;;;;6145364;23;20179;-84
2021/08/12 01:04:15;;;;;;;8.87;6.97;;;14.50;99.90;;;;;;6137961;23;20256;-84
2021/08/12 01:07:23;;;;;;;7.47;6.77;;;14.50;99.90;;;;;;6149181;23;20235;-83
2021/08/12 01:32:09;;;;;;;8.53;7.67;;;13.80;99.90;;;;;;6238995;23;20567;-84
2021/08/12 01:48:09;;;;;;;13.17;9.43;;;13.40;99.90;;;;;;6305512;22;20198;-84
2021/08/12 01:51:49;;;;;;;13.03;9.83;;;13.30;99.90;;;;;;6318033;22;20202;-84
2021/08/12 01:54:55;;;;;;;12.00;10.27;;;13.40;99.90;;;;;;6314906;22;20180;-85
2021/08/12 02:06:34;;;;;;;14.03;10.63;;;13.40;99.90;;;;;;6308685;22;20175;-84
2021/08/12 02:13:47;;;;;;;14.10;11.47;;;13.50;99.90;;;;;;6279102;22;20180;-83
2021/08/12 02:16:22;;;;;;;15.53;11.40;;;13.60;99.90;;;;;;6296357;22;20157;-83
2021/08/12 02:19:09;;;;;;;13.27;11.40;;;13.60;99.90;;;;;;6299051;22;20443;-84
2021/08/12 02:22:20;;;;;;;14.43;11.27;;;13.60;99.90;;;;;;6300406;22;20157;-83
2021/08/12 02:25:45;;;;;;;14.57;11.40;;;13.50;99.90;;;;;;6301759;22;20251;-83
2021/08/12 02:28:19;;;;;;;14.10;11.63;;;13.60;99.90;;;;;;6250314;22;20176;-84
2021/08/12 02:35:30;;;;;;;18.33;12.20;;;13.50;99.90;;;;;;6290154;22;20293;-83
2021/08/12 02:39:02;;;;;;;17.60;12.90;;;13.50;99.90;;;;;;6296367;22;20160;-85
2021/08/12 02:42:01;;;;;;;16.07;13.07;;;13.30;99.90;;;;;;6296660;22;20179;-85
2021/08/12 02:44:57;;;;;;;14.83;12.80;;;13.30;99.90;;;;;;6312656;22;20144;-83
2021/08/12 02:48:43;;;;;;;19.10;13.23;;;13.40;99.90;;;;;;6283276;22;20199;-85
2021/08/12 02:51:29;;;;;;;14.83;13.07;;;13.40;99.90;;;;;;6294988;22;20850;-84
2021/08/12 02:54:16;;;;;;;14.20;12.70;;;13.20;99.90;;;;;;6295709;22;20152;-83
2021/08/12 02:57:09;;;;;;;15.87;13.67;;;13.20;99.90;;;;;;6296273;22;21034;-84
2021/08/12 02:59:38;;;;;;;19.33;14.13;;;13.20;99.90;;;;;;6299717;22;20179;-82
2021/08/12 03:03:04;;;;;;;15.93;13.53;;;13.20;99.90;;;;;;6299274;22;20191;-83
2021/08/12 03:06:31;;;;;;;17.77;13.73;;;13.20;99.90;;;;;;6266032;22;20168;-83
2021/08/12 03:09:02;;;;;;;16.37;13.50;;;13.30;99.90;;;;;;6295235;22;20171;-83
2021/08/12 03:11:56;;;;;;;17.30;14.30;;;13.30;99.90;;;;;;6294867;22;20511;-83
2021/08/12 03:14:36;;;;;;;19.03;13.73;;;13.30;99.90;;;;;;6291101;22;20157;-83
2021/08/12 03:17:15;;;;;;;15.63;13.87;;;13.30;99.90;;;;;;6293281;22;20179;-83
2021/08/12 03:20:16;;;;;;;16.03;13.30;;;13.30;99.90;;;;;;6294194;22;20179;-83
2021/08/12 03:23:12;;;;;;;15.43;13.63;;;13.40;99.90;;;;;;6293126;22;20164;-84
2021/08/12 03:26:10;;;;;;;18.63;14.17;;;13.30;99.90;;;;;;6293411;22;20237;-84
2021/08/12 03:29:25;;;;;;;19.50;13.63;;;13.40;99.90;;;;;;6257042;22;20168;-82
2021/08/12 03:31:59;;;;;;;16.60;13.40;;;13.20;99.90;;;;;;6299239;22;20191;-83
2021/08/12 03:35:06;;;;;;;17.03;13.40;;;13.30;99.90;;;;;;6308725;22;20159;-85
2021/08/12 03:37:43;;;;;;;14.43;12.77;;;13.40;99.90;;;;;;6300340;22;20174;-86
2021/08/12 03:40:49;;;;;;;15.87;13.20;;;13.40;99.90;;;;;;6324117;22;20178;-83
2021/08/12 03:43:23;;;;;;;16.90;13.53;;;13.40;99.90;;;;;;6297718;22;20172;-84
2021/08/12 03:49:45;;;;;;;16.50;13.23;;;13.50;99.90;;;;;;6296275;22;20153;-83
2021/08/12 03:52:14;;;;;;;16.23;13.27;;;13.50;99.90;;;;;;6303084;22;20179;-83
2021/08/12 03:55:25;;;;;;;22.30;15.00;;;13.60;99.90;;;;;;6299877;22;20186;-83
2021/08/12 03:59:02;;;;;;;14.63;13.03;;;13.60;99.90;;;;;;6252229;22;20180;-83
2021/08/12 04:01:32;;;;;;;15.03;13.10;;;13.80;99.90;;;;;;6300355;22;20527;-83
2021/08/12 04:04:01;;;;;;;15.07;13.40;;;13.70;99.90;;;;;;6300797;22;20169;-85
2021/08/12 04:07:27;;;;;;;15.17;12.83;;;13.80;99.90;;;;;;6304599;22;20171;-83
2021/08/12 04:10:54;;;;;;;15.10;12.83;;;13.90;99.90;;;;;;6281827;22;20208;-82
2021/08/12 04:13:24;;;;;;;15.50;13.40;;;13.90;99.90;;;;;;6310744;22;20202;-83
2021/08/12 04:16:02;;;;;;;16.43;12.87;;;14.00;99.90;;;;;;6319668;22;20263;-84
2021/08/12 04:18:31;;;;;;;14.73;11.93;;;14.00;99.90;;;;;;6327389;22;20149;-81
2021/08/12 04:21:00;;;;;;;13.87;12.13;;;14.10;99.90;;;;;;6329376;22;20179;-84
2021/08/12 04:23:30;;;;;;;18.27;12.07;;;14.30;99.90;;;;;;6317021;22;20153;-84
2021/08/12 04:25:59;;;;;;;13.73;12.30;;;14.40;99.90;;;;;;6315921;22;20172;-82
2021/08/12 04:28:49;;;;;;;14.23;12.10;;;14.60;99.90;;;;;;6307033;22;20152;-84
2021/08/12 04:31:18;;;;;;;14.60;11.63;;;14.60;99.90;;;;;;6303395;22;20285;-82
2021/08/12 04:33:47;;;;;;;13.33;11.83;;;14.60;99.90;;;;;;6305170;22;20203;-82
2021/08/12 04:36:18;;;;;;;14.53;12.23;;;14.70;99.90;;;;;;6293410;22;20720;-82
2021/08/12 04:38:48;;;;;;;14.27;12.20;;;14.70;99.90;;;;;;6298591;22;20165;-82
2021/08/12 04:41:17;;;;;;;14.13;12.43;;;14.80;99.90;;;;;;6296251;22;20195;-82
2021/08/12 04:43:46;;;;;;;14.90;11.83;;;14.90;99.90;;;;;;6298959;22;21032;-84
2021/08/12 04:46:16;;;;;;;14.30;11.47;;;15.10;99.90;;;;;;6271631;22;20500;-82
2021/08/12 04:48:45;;;;;;;13.20;11.73;;;15.10;99.90;;;;;;6297259;22;20157;-83
2021/08/12 04:51:16;;;;;;;13.73;11.20;;;15.20;99.90;;;;;;6297661;22;20719;-82
2021/08/12 04:53:45;;;;;;;13.47;10.90;;;15.30;99.90;;;;;;6295143;22;20168;-80
2021/08/12 04:56:13;;;;;;;13.50;11.10;;;15.40;99.90;;;;;;6257698;22;20174;-83
2021/08/12 04:58:43;;;;;;;14.77;10.63;;;15.50;99.90;;;;;;6298739;22;20168;-82
2021/08/12 05:01:12;;;;;;;13.20;11.00;;;15.60;99.90;;;;;;6303331;22;20611;-81
2021/08/12 05:03:42;;;;;;;13.53;11.07;;;15.70;99.90;;;;;;6300326;22;20157;-81
2021/08/12 05:06:14;;;;;;;14.50;10.70;;;15.90;99.90;;;;;;6289920;22;20210;-82
2021/08/12 05:08:45;;;;;;;11.07;9.90;;;16.00;99.80;;;;;;6297494;22;20225;-82
2021/08/12 05:11:17;;;;;;;11.83;10.30;;;16.10;99.30;;;;;;6295423;22;20195;-82
2021/08/12 05:13:47;;;;;;;11.63;10.17;;;16.20;97.70;;;;;;6291488;22;20200;-82
2021/08/12 05:17:14;;;;;;;11.43;9.50;;;16.30;96.60;;;;;;6283254;22;20183;-84
2021/08/12 05:19:45;;;;;;;12.57;9.57;;;16.30;96.20;;;;;;6290677;22;20544;-83
2021/08/12 05:22:14;;;;;;;12.27;9.30;;;16.50;95.10;;;;;;6291118;22;20176;-85
2021/08/12 05:24:45;;;;;;;10.63;9.53;;;16.60;94.50;;;;;;6298218;22;20571;-83
2021/08/12 05:27:18;;;;;;;12.00;9.00;;;16.80;94.50;;;;;;6298342;22;20541;-84
2021/08/12 05:29:48;;;;;;;10.37;9.07;;;16.90;93.90;;;;;;6294721;22;20186;-83
2021/08/12 05:33:03;;;;;;;9.90;8.03;;;17.00;93.40;;;;;;6284695;22;20182;-83
2021/08/12 05:35:34;;;;;;;8.83;7.93;;;17.20;93.40;;;;;;6294741;22;20207;-85
2021/08/12 05:38:27;;;;;;;8.67;7.50;;;17.30;92.60;;;;;;6298076;22;20159;-84
2021/08/12 05:41:05;;;;;;;12.57;7.97;;;17.40;92.20;;;;;;6277501;22;20180;-82
2021/08/12 05:43:46;;;;;;;11.37;7.93;;;17.60;92.10;;;;;;6299055;22;20183;-86
2021/08/12 05:46:17;;;;;;;8.90;7.00;;;17.60;91.40;;;;;;6254268;22;20201;-83
2021/08/12 05:48:49;;;;;;;10.57;7.17;;;17.70;91.80;;;;;;6298917;22;20357;-83
2021/08/12 05:51:44;;;;;;;11.50;7.70;;;17.90;90.60;;;;;;6292088;22;20542;-84
2021/08/12 05:54:13;;;;;;;7.23;6.40;;;18.00;91.10;;;;;;6288813;22;20176;-82
2021/08/12 05:57:07;;;;;;;7.43;6.20;;;18.20;90.80;;;;;;6289564;22;20393;-83
2021/08/12 05:59:36;;;;;;;10.27;6.40;;;18.30;90.40;;;;;;6273785;22;20198;-83
2021/08/12 06:02:13;;;;;;;14.23;6.20;;;18.40;89.80;;;;;;6289530;22;20524;-84
2021/08/12 06:04:58;;;;;;;8.83;6.10;;;18.50;89.20;;;;;;6289386;22;20156;-85
2021/08/12 06:07:28;;;;;;;9.23;5.83;;;18.60;88.00;;;;;;6288809;22;20630;-84
2021/08/12 06:09:57;;;;;;;7.67;5.40;;;18.70;87.30;;;;;;6294264;22;20821;-84
2021/08/12 06:12:26;;;;;;;7.30;5.40;;;18.80;85.90;;;;;;6293144;22;20300;-83
2021/08/12 06:14:58;;;;;;;6.67;5.27;;;18.80;85.40;;;;;;6287422;22;20168;-80
2021/08/12 06:17:27;;;;;;;6.20;4.70;;;18.90;85.30;;;;;;6287950;22;20233;-83
2021/08/12 06:19:58;;;;;;;6.43;4.80;;;19.00;85.00;;;;;;6297456;22;20541;-81
2021/08/12 06:22:29;;;;;;;5.07;4.57;;;19.10;84.60;;;;;;6301750;22;20716;-82
2021/08/12 06:24:58;;;;;;;5.73;4.60;;;19.20;84.80;;;;;;6305855;22;20176;-81
2021/08/12 06:27:26;;;;;;;7.77;4.90;;;19.30;84.60;;;;;;6312844;22;21102;-81
2021/08/12 06:30:09;;;;;;;6.27;4.40;;;19.30;84.20;;;;;;6312007;22;20163;-82
2021/08/12 06:32:44;;;;;;;6.90;4.20;;;19.40;84.20;;;;;;6309628;22;20188;-83
2021/08/12 06:35:34;;;;;;;5.83;3.93;;;19.50;83.90;;;;;;6280669;22;20156;-83
2021/08/12 06:38:08;;;;;;;6.67;4.10;;;19.60;83.90;;;;;;6281820;22;20232;-81
2021/08/12 06:40:37;;;;;;;5.57;4.23;;;19.60;83.90;;;;;;6286204;22;20183;-83
2021/08/12 06:43:06;;;;;;;6.27;5.57;;;19.70;83.60;;;;;;6300337;22;20630;-83
2021/08/12 06:45:41;;;;;;;4.53;3.97;;;19.70;83.80;;;;;;6304881;22;20172;-81
2021/08/12 06:48:19;;;;;;;5.27;4.00;;;19.70;83.50;;;;;;6310505;22;20171;-86
2021/08/12 06:51:19;;;;;;;4.87;3.90;;;19.80;83.60;;;;;;6307532;22;20152;-85
2021/08/12 06:53:53;;;;;;;4.80;3.90;;;20.00;83.60;;;;;;6314663;22;20176;-84
2021/08/12 06:59:14;;;;;;;5.40;4.23;;;20.20;83.00;;;;;;6237975;22;21003;-82
2021/08/12 07:01:43;;;;;;;7.00;3.77;;;20.30;83.10;;;;;;6285028;22;20157;-83
2021/08/12 07:04:12;;;;;;;5.43;4.27;;;20.40;83.50;;;;;;6304626;22;20200;-83
2021/08/12 07:07:02;;;;;;;4.40;3.67;;;20.50;82.90;;;;;;6283578;22;20168;-84
2021/08/12 07:09:35;;;;;;;5.80;4.03;;;20.60;82.60;;;;;;6279912;22;20182;-85
2021/08/12 07:12:11;;;;;;;6.07;3.93;;;20.60;83.00;;;;;;6277957;22;20203;-84
2021/08/12 07:14:44;;;;;;;5.87;3.93;;;20.60;82.80;;;;;;6283137;22;20589;-83
2021/08/12 07:17:15;;;;;;;8.33;3.90;;;20.70;82.90;;;;;;6292232;22;20528;-82
2021/08/12 07:19:50;;;;;;;4.53;3.40;;;20.80;82.90;;;;;;6293974;22;20164;-83
2021/08/12 07:22:25;;;;;;;5.17;3.40;;;20.80;82.20;;;;;;6276187;22;20676;-84
2021/08/12 07:25:02;;;;;;;6.03;3.40;;;20.80;82.00;;;;;;6283139;22;20178;-82
2021/08/12 07:54:19;;;;;;;3.03;2.73;;;21.20;81.10;;;;;;5833553;24;21157;-83
2021/08/12 07:56:55;;;;;;;3.13;2.50;;;21.20;81.40;;;;;;5861533;24;20182;-83
2021/08/12 07:59:24;;;;;;;4.70;3.10;;;21.30;81.60;;;;;;5860108;24;20178;-83
2021/08/12 08:01:54;;;;;;;5.37;3.07;;;21.50;81.10;;;;;;5861651;24;20190;-83
2021/08/12 08:04:24;;;;;;;4.20;2.60;;;21.40;80.40;;;;;;5858456;24;20248;-83
2021/08/12 08:06:59;;;;;;;5.10;3.57;;;21.10;80.90;;;;;;5869570;24;20186;-83
2021/08/12 08:09:32;;;;;;;4.30;3.27;;;20.80;80.60;;;;;;5833461;24;20186;-83
2021/08/12 08:12:01;;;;;;;3.50;2.73;;;20.90;81.30;;;;;;5860758;24;20214;-83
2021/08/12 08:14:30;;;;;;;3.30;3.00;;;21.10;80.90;;;;;;5870893;24;20193;-82
2021/08/12 08:16:58;;;;;;;4.68;3.22;;;21.20;81.10;;;;;;5929747;23;20167;-82
2021/08/12 08:19:29;;;;;;;5.95;3.55;;;21.40;80.80;;;;;;5985089;23;20199;-83
2021/08/12 08:21:58;;;;;;;3.85;3.45;;;21.70;80.70;;;;;;5980693;23;20179;-84
2021/08/12 08:24:31;;;;;;;3.40;3.10;;;21.70;80.80;;;;;;5993613;23;20423;-82
2021/08/12 08:26:59;;;;;;;3.58;3.22;;;21.70;80.60;;;;;;5985348;23;20172;-81
2021/08/12 08:29:30;;;;;;;3.58;3.28;;;21.60;80.60;;;;;;5992220;23;20167;-83
2021/08/12 08:31:59;;;;;;;4.82;3.60;;;21.60;80.80;;;;;;5986235;23;20200;-81
2021/08/12 08:34:28;;;;;;;6.20;3.65;;;21.50;81.00;;;;;;5998970;23;20170;-81
2021/08/12 08:36:57;;;;;;;6.40;3.53;;;21.60;80.80;;;;;;5980723;23;20172;-84
2021/08/12 08:39:31;;;;;;;5.15;3.70;;;21.80;80.90;;;;;;5974688;24;20183;-85
2021/08/12 08:42:02;;;;;;;5.18;3.45;;;21.70;80.30;;;;;;5989801;23;20502;-84
2021/08/12 08:44:35;;;;;;;4.25;3.85;;;21.60;80.70;;;;;;5986161;23;20176;-84
2021/08/12 08:47:10;;;;;;;3.90;3.55;;;21.70;81.20;;;;;;5986146;24;20230;-81
2021/08/12 08:49:43;;;;;;;3.67;3.30;;;21.90;80.90;;;;;;5986712;23;20167;-84
2021/08/12 08:52:12;;;;;;;3.97;3.60;;;21.90;80.90;;;;;;5993827;23;20176;-83
2021/08/12 08:54:44;;;;;;;5.40;3.60;;;21.80;81.00;;;;;;5990613;23;20187;-82
2021/08/12 08:57:12;;;;;;;4.82;3.58;;;21.70;80.30;;;;;;5988119;23;20198;-85
2021/08/12 08:59:41;;;;;;;4.60;3.47;;;21.70;80.50;;;;;;6017651;23;20162;-82
2021/08/12 09:02:10;;;;;;;3.78;3.47;;;21.70;80.20;;;;;;6015365;23;20376;-83
2021/08/12 09:04:40;;;;;;;4.15;3.60;;;21.70;80.60;;;;;;6133397;23;20204;-82
2021/08/12 09:07:10;;;;;;;3.42;3.13;;;21.70;80.10;;;;;;6130909;23;20168;-83
2021/08/12 09:09:39;;;;;;;6.00;3.45;;;21.60;79.70;;;;;;6246892;22;20187;-81
2021/08/12 09:12:10;;;;;;;3.80;3.00;;;21.40;79.70;;;;;;6297470;22;20175;-82
2021/08/12 09:14:40;;;;;;;4.57;3.58;;;21.40;80.00;;;;;;6313717;22;20528;-81
2021/08/12 09:17:26;;;;;;;4.40;3.80;;;21.50;79.80;;;;;;6330025;22;20148;-81
2021/08/12 09:20:06;;;;;;;4.28;3.72;;;21.60;80.40;;;;;;6322974;22;20152;-83
2021/08/12 09:22:55;;;;;;;5.05;3.63;;;21.80;79.80;;;;;;6313131;22;20191;-83
2021/08/12 09:25:35;;;;;;;4.28;3.55;;;21.80;80.30;;;;;;6298497;22;20167;-81
2021/08/12 09:28:14;;;;;;;4.18;3.75;;;21.70;79.50;;;;;;6294164;22;20176;-82
2021/08/12 09:30:44;;;;;;;4.15;3.25;;;21.70;79.60;;;;;;6306998;22;20163;-81
2021/08/12 09:33:18;;;;;;;4.75;3.50;;;21.90;80.60;;;;;;6302813;22;20187;-82
2021/08/12 09:35:47;;;;;;;4.97;3.35;;;22.30;80.20;;;;;;6298547;22;20227;-81
2021/08/12 09:38:19;;;;;;;4.13;3.72;;;22.40;79.00;;;;;;6276243;22;20501;-81
2021/08/12 09:40:54;;;;;;;4.05;3.65;;;22.60;79.00;;;;;;6298323;22;20396;-82
2021/08/12 09:43:30;;;;;;;5.07;3.55;;;22.60;79.20;;;;;;6303632;22;20167;-85
2021/08/12 09:45:59;;;;;;;4.45;3.70;;;22.50;77.90;;;;;;6295667;22;20164;-81
2021/08/12 09:48:30;;;;;;;3.72;3.42;;;22.50;78.80;;;;;;6285220;22;20229;-80
2021/08/12 09:51:07;;;;;;;4.47;4.07;;;22.30;78.40;;;;;;6281919;22;20203;-81
2021/08/12 09:53:41;;;;;;;8.90;7.32;;;22.10;79.40;;;;;;6283660;22;20262;-82
2021/08/12 09:56:15;;;;;;;10.38;8.13;;;22.10;80.00;;;;;;6284867;22;20962;-82
2021/08/12 09:58:46;;;;;;;4.18;3.78;;;22.30;80.00;;;;;;6283955;22;20176;-82
2021/08/12 10:01:19;;;;;;;6.15;3.70;;;22.50;78.80;;;;;;6279097;22;20263;-83
2021/08/12 10:03:51;;;;;;;4.22;3.80;;;22.40;77.80;;;;;;6278422;22;20171;-82
2021/08/12 10:06:38;;;;;;;4.30;3.30;;;22.00;78.10;;;;;;6292466;22;20296;-83
2021/08/12 10:09:18;;;;;;;4.63;3.67;;;21.90;78.50;;;;;;6292512;22;20168;-84
2021/08/12 10:11:49;;;;;;;4.50;4.10;;;22.00;78.30;;;;;;6288352;22;20439;-83
2021/08/12 10:14:24;;;;;;;4.32;3.90;;;22.20;79.10;;;;;;6290370;22;20200;-84
2021/08/12 10:16:53;;;;;;;4.10;3.53;;;22.40;78.40;;;;;;6284649;22;20279;-83
2021/08/12 10:19:23;;;;;;;4.10;3.70;;;22.40;78.40;;;;;;6263337;22;20868;-83
2021/08/12 10:22:00;;;;;;;3.92;3.63;;;22.60;78.20;;;;;;6293498;22;20172;-82
2021/08/12 10:24:30;;;;;;;5.55;3.90;;;22.70;78.50;;;;;;6295788;22;20160;-83
2021/08/12 10:27:00;;;;;;;3.92;3.55;;;22.70;77.00;;;;;;6298110;22;20175;-85
2021/08/12 10:29:34;;;;;;;3.55;3.20;;;22.70;77.40;;;;;;6281252;22;20279;-85
2021/08/12 10:32:05;;;;;;;3.95;3.65;;;23.00;78.00;;;;;;6277258;22;20178;-82
2021/08/12 10:34:34;;;;;;;4.43;3.55;;;23.20;78.40;;;;;;6283351;22;20216;-83
2021/08/12 10:37:11;;;;;;;4.85;3.45;;;23.30;77.40;;;;;;6288857;22;20171;-84
2021/08/12 10:39:42;;;;;;;4.40;3.55;;;23.50;77.10;;;;;;6302314;22;20209;-82
2021/08/12 10:42:11;;;;;;;4.43;3.85;;;23.50;76.60;;;;;;6300080;22;20448;-86
2021/08/12 10:44:44;;;;;;;3.55;3.25;;;23.70;76.50;;;;;;6279703;22;20156;-82
2021/08/12 10:47:42;;;;;;;3.92;3.60;;;23.70;76.20;;;;;;6285939;22;20160;-83
2021/08/12 10:50:34;;;;;;;3.58;3.13;;;23.70;76.70;;;;;;6290624;22;20543;-83
2021/08/12 10:53:23;;;;;;;3.42;2.90;;;23.80;76.50;;;;;;6292234;22;20194;-83
2021/08/12 10:56:18;;;;;;;4.13;3.55;;;23.70;75.80;;;;;;6277727;22;20180;-84
2021/08/12 10:59:06;;;;;;;3.90;3.60;;;23.60;75.50;;;;;;6281486;22;20504;-84
2021/08/12 11:01:41;;;;;;;3.75;3.45;;;23.40;75.60;;;;;;6260329;22;20279;-84
2021/08/12 11:04:13;;;;;;;4.18;3.65;;;23.30;76.30;;;;;;6274207;22;20172;-82
2021/08/12 11:06:47;;;;;;;3.95;3.47;;;23.40;76.10;;;;;;6277519;22;20192;-83
2021/08/12 11:09:20;;;;;;;6.00;3.88;;;23.30;76.00;;;;;;6273224;22;20180;-84
2021/08/12 11:11:59;;;;;;;4.50;3.88;;;23.10;76.00;;;;;;6281291;22;20170;-84
2021/08/12 11:14:51;;;;;;;4.53;4.13;;;23.10;76.00;;;;;;6285434;22;20199;-84
2021/08/12 11:17:22;;;;;;;6.50;4.00;;;23.20;76.50;;;;;;6286689;22;20279;-83
2021/08/12 11:19:53;;;;;;;4.53;3.55;;;23.30;76.50;;;;;;6273281;22;20167;-84
2021/08/12 11:22:33;;;;;;;5.25;3.95;;;23.30;75.40;;;;;;6289903;22;20741;-83
2021/08/12 11:25:12;;;;;;;4.22;3.90;;;22.90;75.70;;;;;;6291751;22;20217;-83
2021/08/12 11:27:46;;;;;;;6.63;3.92;;;22.70;75.80;;;;;;6290767;22;20171;-84
2021/08/12 11:30:47;;;;;;;5.20;4.03;;;22.60;76.10;;;;;;6270937;22;20183;-85
2021/08/12 11:33:34;;;;;;;5.65;3.95;;;22.50;76.10;;;;;;6281445;22;20171;-85
2021/08/12 11:36:23;;;;;;;3.72;3.45;;;22.60;76.00;;;;;;6287787;22;20176;-83
2021/08/12 11:38:58;;;;;;;4.72;3.60;;;22.60;75.40;;;;;;6287389;22;20887;-83
2021/08/12 11:41:35;;;;;;;4.10;3.70;;;22.60;75.40;;;;;;6286327;22;20259;-84
2021/08/12 11:44:10;;;;;;;4.05;3.70;;;22.60;76.10;;;;;;6287750;22;20160;-83
2021/08/12 11:46:40;;;;;;;4.75;3.80;;;22.80;76.20;;;;;;6299008;22;20166;-81
2021/08/12 11:49:16;;;;;;;4.78;3.92;;;22.90;75.80;;;;;;6301225;22;20172;-83
2021/08/12 11:51:45;;;;;;;4.25;3.85;;;22.90;76.10;;;;;;6289213;22;21129;-83
2021/08/12 11:54:26;;;;;;;4.30;4.00;;;22.90;75.20;;;;;;6283908;22;20925;-84
2021/08/12 11:56:58;;;;;;;3.88;3.58;;;22.90;75.50;;;;;;6284807;22;20167;-84
2021/08/12 11:59:37;;;;;;;4.22;3.80;;;22.90;75.10;;;;;;6289224;22;20168;-82
2021/08/12 12:02:08;;;;;;;5.00;4.00;;;23.10;76.00;;;;;;6293422;22;20172;-83
2021/08/12 12:04:44;;;;;;;4.00;3.70;;;23.30;75.10;;;;;;6311543;22;20157;-82
2021/08/12 12:07:13;;;;;;;3.75;3.45;;;23.50;75.90;;;;;;6323151;22;20172;-81
2021/08/12 12:09:43;;;;;;;5.40;3.80;;;23.80;75.20;;;;;;6329651;22;20175;-80
2021/08/12 12:12:12;;;;;;;4.30;3.70;;;24.10;75.10;;;;;;6320915;22;20156;-85
2021/08/12 12:14:43;;;;;;;3.88;3.58;;;24.30;75.10;;;;;;6311317;22;20191;-85
2021/08/12 12:17:16;;;;;;;3.70;3.40;;;24.50;74.60;;;;;;6258306;22;20202;-82
2021/08/12 12:20:14;;;;;;;3.90;3.60;;;24.60;74.10;;;;;;6291165;22;20172;-82
2021/08/12 12:22:56;;;;;;;4.82;4.32;;;24.60;73.80;;;;;;6253844;22;20172;-84
2021/08/12 12:25:25;;;;;;;4.72;3.45;;;24.80;74.00;;;;;;6298852;22;20165;-84
2021/08/12 12:27:56;;;;;;;4.75;3.50;;;24.90;72.80;;;;;;6295684;22;20173;-82
2021/08/12 12:30:27;;;;;;;4.43;4.03;;;24.90;73.00;;;;;;6283913;22;20164;-82
2021/08/12 12:32:59;;;;;;;4.43;4.03;;;24.80;73.00;;;;;;6272023;22;20183;-83
2021/08/12 12:35:31;;;;;;;4.07;3.78;;;24.80;73.10;;;;;;6278557;22;20589;-84
2021/08/12 12:38:01;;;;;;;3.95;3.28;;;24.80;72.80;;;;;;6274134;22;20408;-84
2021/08/12 12:40:34;;;;;;;4.25;3.75;;;24.80;73.50;;;;;;6232362;22;20179;-85
2021/08/12 12:43:03;;;;;;;3.45;3.15;;;24.70;73.20;;;;;;6274257;22;20271;-85
2021/08/12 12:45:48;;;;;;;3.65;3.35;;;24.50;72.50;;;;;;6234123;22;20180;-87
2021/08/12 12:48:17;;;;;;;4.13;3.40;;;24.10;72.30;;;;;;6238203;22;20245;-84
2021/08/12 12:50:49;;;;;;;3.80;3.50;;;24.00;73.00;;;;;;6274127;22;20241;-86
2021/08/12 12:53:32;;;;;;;4.68;3.47;;;24.20;72.50;;;;;;6283772;22;20268;-85
2021/08/12 12:56:02;;;;;;;5.57;3.58;;;24.50;72.70;;;;;;6300369;22;20188;-83
2021/08/12 12:58:35;;;;;;;3.92;3.45;;;24.80;72.70;;;;;;6277228;22;20172;-85
2021/08/12 13:01:09;;;;;;;3.70;3.40;;;24.80;71.30;;;;;;6275696;22;20164;-83
2021/08/12 13:03:40;;;;;;;4.05;3.40;;;24.70;71.30;;;;;;6284590;22;20250;-85
2021/08/12 13:06:12;;;;;;;4.40;3.58;;;24.50;71.20;;;;;;6283308;22;20226;-82
2021/08/12 13:08:43;;;;;;;4.00;3.70;;;24.70;72.10;;;;;;6287400;22;20182;-85
2021/08/12 13:11:15;;;;;;;5.57;3.80;;;24.80;72.10;;;;;;6288286;22;20173;-84
2021/08/12 13:13:45;;;;;;;5.20;3.78;;;25.10;72.00;;;;;;6284283;22;20838;-84
2021/08/12 13:16:16;;;;;;;4.43;3.70;;;25.40;72.20;;;;;;6284316;22;20548;-85
2021/08/12 13:18:52;;;;;;;5.05;3.60;;;25.50;72.50;;;;;;6278525;22;20395;-86
2021/08/12 13:21:32;;;;;;;4.35;3.95;;;25.50;71.80;;;;;;6284360;22;20179;-84
2021/08/12 13:24:07;;;;;;;6.72;3.80;;;25.50;70.60;;;;;;6281690;22;20179;-83
2021/08/12 13:26:38;;;;;;;5.38;3.97;;;25.40;71.20;;;;;;6276810;22;20874;-85
2021/08/12 13:29:09;;;;;;;4.75;3.85;;;25.30;70.90;;;;;;6273667;22;20168;-83
2021/08/12 13:31:41;;;;;;;4.60;3.92;;;25.30;71.00;;;;;;6270694;22;20749;-85
2021/08/12 13:34:11;;;;;;;4.47;3.75;;;25.40;71.90;;;;;;6279836;22;20175;-85
2021/08/12 13:36:42;;;;;;;5.47;3.92;;;25.60;71.20;;;;;;6278712;22;20226;-84
2021/08/12 13:39:11;;;;;;;5.18;3.50;;;25.80;71.80;;;;;;6282716;22;20275;-85
2021/08/12 13:41:49;;;;;;;3.67;3.38;;;26.00;70.90;;;;;;6279874;22;20253;-86
2021/08/12 13:44:18;;;;;;;4.05;3.47;;;26.00;70.80;;;;;;6291082;22;20183;-84
2021/08/12 13:46:48;;;;;;;3.60;3.20;;;26.20;70.50;;;;;;6288387;22;20160;-85
2021/08/12 13:49:17;;;;;;;3.47;3.17;;;26.10;68.90;;;;;;6305798;22;20177;-86
2021/08/12 13:51:47;;;;;;;3.50;3.20;;;25.90;69.00;;;;;;6283897;22;20854;-84
2021/08/12 13:54:16;;;;;;;4.00;3.08;;;25.90;69.40;;;;;;6288620;22;20449;-84
2021/08/12 13:56:45;;;;;;;4.03;3.63;;;26.00;68.50;;;;;;6287359;22;20196;-84
2021/08/12 13:59:18;;;;;;;3.67;3.20;;;25.90;68.70;;;;;;6286240;22;20214;-86
2021/08/12 14:01:47;;;;;;;3.65;3.35;;;25.90;69.40;;;;;;6297665;22;20176;-85
2021/08/12 14:04:17;;;;;;;4.35;3.30;;;26.10;69.30;;;;;;6310599;22;20168;-87
2021/08/12 14:06:47;;;;;;;5.28;3.15;;;26.30;69.90;;;;;;6293746;22;20710;-86
2021/08/12 14:09:18;;;;;;;5.00;2.83;;;26.60;69.20;;;;;;6289108;22;20161;-86
2021/08/12 14:11:51;;;;;;;3.45;3.15;;;26.90;68.20;;;;;;6307119;22;20160;-86
2021/08/12 14:14:20;;;;;;;3.10;2.90;;;27.30;68.50;;;;;;6315614;22;20184;-86
2021/08/12 14:16:50;;;;;;;4.32;3.05;;;27.70;68.20;;;;;;6282131;22;20196;-86
2021/08/12 14:19:19;;;;;;;3.80;3.08;;;28.40;65.80;;;;;;6308195;22;20164;-82
2021/08/12 14:21:54;;;;;;;5.05;3.15;;;29.00;65.00;;;;;;6320131;22;20213;-85
2021/08/12 14:24:23;;;;;;;3.17;2.88;;;29.40;63.50;;;;;;6311572;22;20659;-83
2021/08/12 14:26:51;;;;;;;3.15;2.95;;;29.90;63.40;;;;;;6300792;22;20157;-87
2021/08/12 14:29:20;;;;;;;3.40;2.80;;;30.50;62.80;;;;;;6292802;22;20176;-86
2021/08/12 14:31:49;;;;;;;3.30;3.10;;;31.10;62.10;;;;;;6298795;22;20261;-84
2021/08/12 14:34:19;;;;;;;3.33;3.05;;;31.60;60.80;;;;;;6296843;22;20175;-85
2021/08/12 14:36:51;;;;;;;3.42;2.92;;;31.60;58.90;;;;;;6301192;22;20264;-85
2021/08/12 14:39:20;;;;;;;3.03;2.75;;;31.50;55.20;;;;;;6265756;22;20484;-86
2021/08/12 14:41:48;;;;;;;2.85;2.60;;;31.20;54.20;;;;;;6299895;22;20180;-84
2021/08/12 14:44:17;;;;;;;2.90;2.70;;;31.20;55.70;;;;;;6302553;22;20160;-83
2021/08/12 14:46:46;;;;;;;4.05;2.85;;;31.50;54.90;;;;;;6310625;22;20168;-86
2021/08/12 14:49:15;;;;;;;3.42;2.92;;;31.40;54.00;;;;;;6328120;22;20145;-83
2021/08/12 14:51:44;;;;;;;5.95;2.65;;;31.50;54.50;;;;;;6337946;22;20212;-85
2021/08/12 14:54:17;;;;;;;2.70;2.50;;;32.10;54.40;;;;;;6335218;22;20171;-85
2021/08/12 14:56:46;;;;;;;2.50;2.30;;;32.70;53.50;;;;;;6336792;22;20235;-85
2021/08/12 14:59:15;;;;;;;4.63;2.75;;;33.10;52.30;;;;;;6333205;22;20144;-87
2021/08/12 15:01:44;;;;;;;2.60;2.40;;;32.40;52.20;;;;;;6292758;22;20535;-86
2021/08/12 15:04:13;;;;;;;3.05;2.75;;;32.40;51.90;;;;;;6307145;22;20631;-86
2021/08/12 15:06:43;;;;;;;3.33;2.33;;;32.00;50.80;;;;;;6302028;22;20164;-83
2021/08/12 15:09:12;;;;;;;3.15;2.50;;;31.90;50.50;;;;;;6304363;22;20168;-86
2021/08/12 15:11:43;;;;;;;2.97;2.50;;;31.50;50.60;;;;;;6314714;22;20153;-84
2021/08/12 15:14:12;;;;;;;3.85;2.90;;;30.70;51.10;;;;;;6300724;22;20199;-83
2021/08/12 15:16:41;;;;;;;3.10;2.80;;;30.60;50.60;;;;;;6301046;22;20531;-86
2021/08/12 15:19:10;;;;;;;2.78;2.58;;;30.10;51.00;;;;;;6300134;22;20382;-84
2021/08/12 15:21:54;;;;;;;2.78;2.58;;;29.40;52.30;;;;;;6299010;22;20724;-84
2021/08/12 15:24:26;;;;;;;3.47;2.90;;;29.80;51.80;;;;;;6311503;22;20258;-83
2021/08/12 15:26:59;;;;;;;4.75;2.72;;;30.30;51.00;;;;;;6305727;22;20910;-85
2021/08/12 15:29:39;;;;;;;4.18;2.45;;;31.00;51.30;;;;;;6295078;22;20601;-83
2021/08/12 15:32:13;;;;;;;3.40;3.00;;;31.00;51.40;;;;;;6294223;22;20152;-85
2021/08/12 15:34:41;;;;;;;2.92;2.63;;;30.80;50.70;;;;;;6297279;22;20156;-83
2021/08/12 15:37:29;;;;;;;3.08;2.78;;;30.10;50.60;;;;;;6295789;22;20196;-84
2021/08/12 15:40:06;;;;;;;3.40;2.85;;;30.40;51.30;;;;;;6283278;22;20172;-85